Repto Sabanetas, Puerto Rico
Current Conditions -  °F | °C
As of 9:55 AM on Wednesday 26 Nov 2014 (Local Time) from TJIG Reporting Station
Broken Clouds Broken Clouds  
Wind Chill: 82°   Ceiling: 10000
Heat Index: 88°   Visibility: 10mi
Dew Point: 73°   Wind: 14mph
Humidity: 74%   Direction: 90°E
Pressure: 30.08"   Gusts: NA
Location:  18.0093°N, 66.6209°W
Report Text: TJIG 261355Z 09012KT 10SM SCT033 BKN100 28/23 A3008 RMK RY09 IN USE ATIS E
Loading
Personal Weather Stations






























Interactive Weather Map New forecast layout! Learn more

10-Day Weather Forecast

Advertisements
Track Severe Weather on mobile